createdAt,value
2023-03-01T00:01:19.378Z,8.20
2023-03-01T00:01:58.179Z,7.70
2023-03-01T00:02:58.223Z,7.50
2023-03-01T00:03:58.163Z,7.40
2023-03-01T00:04:58.260Z,7.30
2023-03-01T00:05:58.119Z,7.40
2023-03-01T00:06:58.208Z,7.20
2023-03-01T00:07:58.091Z,7.10
2023-03-01T00:08:58.242Z,7.70
2023-03-01T00:09:58.092Z,7.30
2023-03-01T00:10:58.311Z,6.90
2023-03-01T00:11:58.039Z,7.60
2023-03-01T00:12:58.098Z,7.30
2023-03-01T00:13:58.018Z,7.60
2023-03-01T00:14:58.139Z,7.30
2023-03-01T00:15:58.009Z,7.90
2023-03-01T00:16:58.094Z,7.70
2023-03-01T00:17:57.970Z,8.20
2023-03-01T00:18:59.166Z,7.90
2023-03-01T00:19:57.937Z,8.00
2023-03-01T00:20:58.164Z,8.40
2023-03-01T00:21:57.934Z,7.80
2023-03-01T00:22:57.977Z,7.70
2023-03-01T00:23:57.890Z,8.30
2023-03-01T00:25:20.987Z,7.60
2023-03-01T00:25:57.867Z,7.60
2023-03-01T00:26:57.950Z,8.10
2023-03-01T00:27:57.848Z,8.00
2023-03-01T00:28:57.986Z,7.90
2023-03-01T00:29:57.815Z,8.50
2023-03-01T00:30:57.993Z,8.70
2023-03-01T00:31:57.836Z,8.80
2023-03-01T00:32:57.863Z,8.00
2023-03-01T00:33:57.787Z,8.00
2023-03-01T00:34:57.888Z,8.30
2023-03-01T00:35:57.818Z,8.10
2023-03-01T00:36:57.827Z,7.90
2023-03-01T00:37:57.715Z,7.50
2023-03-01T00:38:57.867Z,7.90
2023-03-01T00:39:57.728Z,8.00
2023-03-01T00:40:57.799Z,8.50
2023-03-01T00:41:57.674Z,7.80
2023-03-01T00:42:57.744Z,8.00
2023-03-01T00:43:57.669Z,8.00
2023-03-01T00:44:57.776Z,7.60
2023-03-01T00:45:57.662Z,8.10
2023-03-01T00:46:57.847Z,7.70
2023-03-01T00:47:57.587Z,8.40
2023-03-01T00:48:57.637Z,7.80
2023-03-01T00:49:57.580Z,7.90
2023-03-01T00:50:57.684Z,8.40
2023-03-01T00:51:57.557Z,8.30
2023-03-01T00:52:58.639Z,8.70
2023-03-01T00:53:57.526Z,8.30
2023-03-01T00:56:06.937Z,8.40
2023-03-01T00:57:06.842Z,8.20
2023-03-01T00:58:06.958Z,9.20
2023-03-01T00:59:06.811Z,8.10
2023-03-01T01:00:09.001Z,8.30
2023-03-01T01:01:06.801Z,8.50
2023-03-01T01:02:06.934Z,9.20
2023-03-01T01:03:06.771Z,7.90
2023-03-01T01:04:06.809Z,9.10
2023-03-01T01:05:06.743Z,8.90
2023-03-01T01:06:06.830Z,8.30
2023-03-01T01:07:06.713Z,8.40
2023-03-01T01:08:06.841Z,8.90
2023-03-01T01:09:06.710Z,8.80
2023-03-01T01:10:07.813Z,8.70
2023-03-01T01:11:06.645Z,8.90
2023-03-01T01:12:07.863Z,8.40
2023-03-01T01:13:06.618Z,9.10
2023-03-01T01:14:06.646Z,8.60
2023-03-01T01:15:06.605Z,9.10
2023-03-01T01:16:06.722Z,8.90
2023-03-01T01:17:06.572Z,8.20
2023-03-01T01:18:07.648Z,8.70
2023-03-01T01:19:06.541Z,8.80
2023-03-01T01:20:06.667Z,8.70
2023-03-01T01:21:06.531Z,8.90
2023-03-01T01:22:06.581Z,8.90
2023-03-01T01:23:06.505Z,8.80
2023-03-01T01:24:06.623Z,9.00
2023-03-01T01:25:06.478Z,9.70
2023-03-01T01:26:06.561Z,9.50
2023-03-01T01:27:06.460Z,9.60
2023-03-01T01:28:06.590Z,9.60
2023-03-01T01:29:06.419Z,9.90
2023-03-01T01:30:27.499Z,9.50
2023-03-01T01:31:06.419Z,9.40
2023-03-01T01:32:06.508Z,10.20
2023-03-01T01:33:06.381Z,10.10
2023-03-01T01:34:06.402Z,9.90
2023-03-01T01:35:06.335Z,10.40
2023-03-01T01:36:08.530Z,10.30
2023-03-01T01:37:06.307Z,10.30
2023-03-01T01:38:06.468Z,10.50
2023-03-01T01:39:06.313Z,10.20
2023-03-01T01:40:06.397Z,10.30
2023-03-01T01:41:06.256Z,10.60
2023-03-01T01:42:06.338Z,10.80
2023-03-01T01:43:06.242Z,11.70
2023-03-01T01:44:06.377Z,10.20
2023-03-01T01:45:06.224Z,11.40
2023-03-01T01:46:06.358Z,11.40
2023-03-01T01:47:06.194Z,11.30
2023-03-01T01:48:08.435Z,11.80
2023-03-01T01:49:06.166Z,10.50
2023-03-01T01:50:06.289Z,10.60
2023-03-01T01:51:06.143Z,10.60
2023-03-01T01:52:06.216Z,10.30
2023-03-01T01:53:06.104Z,10.10
2023-03-01T01:54:06.254Z,10.10
2023-03-01T01:55:06.074Z,9.90
2023-03-01T01:56:06.181Z,9.50
2023-03-01T01:57:06.063Z,10.30
2023-03-01T01:58:06.216Z,9.90
2023-03-01T01:59:06.024Z,10.40
2023-03-01T02:00:06.163Z,10.20
2023-03-01T02:01:06.007Z,9.90
2023-03-01T02:02:06.104Z,10.30
2023-03-01T02:03:06.141Z,10.10
2023-03-01T02:04:06.131Z,10.70
2023-03-01T02:05:05.948Z,10.70
2023-03-01T02:06:08.151Z,10.10
2023-03-01T02:07:05.963Z,9.90
2023-03-01T02:08:08.090Z,10.50
2023-03-01T02:09:05.910Z,10.80
2023-03-01T02:10:05.928Z,10.50
2023-03-01T02:11:05.878Z,10.40
2023-03-01T02:12:05.965Z,10.70
2023-03-01T02:13:05.854Z,10.60
2023-03-01T02:14:06.000Z,11.10
2023-03-01T02:15:05.840Z,11.20
2023-03-01T02:16:06.008Z,10.90
2023-03-01T02:17:05.790Z,11.20
2023-03-01T02:18:06.905Z,11.20
2023-03-01T02:19:05.799Z,11.00
2023-03-01T02:20:05.922Z,10.90
2023-03-01T02:21:05.759Z,10.60
2023-03-01T02:22:05.860Z,11.10
2023-03-01T02:23:05.722Z,10.80
2023-03-01T02:24:26.869Z,11.00
2023-03-01T02:25:05.702Z,10.60
2023-03-01T02:26:05.820Z,11.00
2023-03-01T02:27:05.690Z,11.10
2023-03-01T02:28:05.750Z,10.70
2023-03-01T02:29:05.648Z,10.80
2023-03-01T02:30:26.757Z,10.80
2023-03-01T02:31:05.627Z,10.50
2023-03-01T02:32:05.654Z,10.40
2023-03-01T02:33:05.739Z,10.60
2023-03-01T02:34:05.604Z,10.30
2023-03-01T02:35:05.719Z,11.20
2023-03-01T02:36:05.550Z,11.20
2023-03-01T02:37:05.682Z,10.60
2023-03-01T02:38:05.526Z,11.90
2023-03-01T02:39:05.656Z,11.80
2023-03-01T02:40:05.496Z,11.80
2023-03-01T02:41:05.529Z,11.00
2023-03-01T02:42:05.481Z,10.90
2023-03-01T02:43:05.562Z,10.70
2023-03-01T02:44:05.451Z,10.70
2023-03-01T02:45:05.559Z,10.80
2023-03-01T02:46:05.425Z,11.10
2023-03-01T02:47:06.555Z,11.50
2023-03-01T02:48:05.396Z,10.70
2023-03-01T02:49:05.569Z,11.30
2023-03-01T02:50:05.366Z,10.60
2023-03-01T02:51:05.455Z,11.80
2023-03-01T02:52:05.347Z,12.10
2023-03-01T02:53:27.442Z,11.60
2023-03-01T02:54:05.315Z,11.00
2023-03-01T02:55:05.481Z,11.40
2023-03-01T02:56:05.305Z,11.30
2023-03-01T02:57:05.463Z,11.30
2023-03-01T02:58:05.267Z,11.10
2023-03-01T02:59:05.345Z,10.70
2023-03-01T03:00:05.244Z,11.50
2023-03-01T03:01:05.365Z,11.50
2023-03-01T03:02:05.214Z,11.50
2023-03-01T03:03:05.370Z,11.70
2023-03-01T03:04:05.225Z,11.20
2023-03-01T03:05:06.274Z,11.70
2023-03-01T03:06:05.162Z,11.70
2023-03-01T03:07:05.305Z,11.50
2023-03-01T03:08:05.172Z,11.70
2023-03-01T03:09:05.274Z,11.90
2023-03-01T03:10:05.120Z,11.70
2023-03-01T03:11:05.153Z,11.70
2023-03-01T03:12:05.093Z,11.60
2023-03-01T03:13:05.194Z,12.00
2023-03-01T03:14:05.061Z,12.50
2023-03-01T03:15:06.213Z,12.90
2023-03-01T03:16:05.086Z,13.60
2023-03-01T03:17:28.159Z,13.40
2023-03-01T03:18:05.010Z,13.40
2023-03-01T03:19:05.091Z,12.70
2023-03-01T03:20:04.987Z,12.50
2023-03-01T03:21:06.133Z,13.30
2023-03-01T03:22:04.950Z,13.00
2023-03-01T03:23:05.070Z,12.80
2023-03-01T03:24:04.920Z,13.30
2023-03-01T03:25:05.110Z,12.60
2023-03-01T03:26:04.899Z,13.60
2023-03-01T03:27:07.035Z,13.40
2023-03-01T03:28:04.880Z,12.70
2023-03-01T03:29:04.971Z,13.30
2023-03-01T03:30:04.861Z,13.70
2023-03-01T03:31:05.012Z,12.80
2023-03-01T03:32:04.937Z,13.50
2023-03-01T03:33:04.987Z,13.10
2023-03-01T03:34:04.806Z,13.40
2023-03-01T03:35:04.975Z,13.30
2023-03-01T03:36:04.815Z,12.80
2023-03-01T03:38:14.301Z,13.60
2023-03-01T03:39:14.080Z,14.10
2023-03-01T03:40:14.233Z,13.80
2023-03-01T03:41:14.063Z,14.30
2023-03-01T03:42:15.222Z,13.70
2023-03-01T03:43:14.032Z,14.30
2023-03-01T03:44:14.152Z,14.50
2023-03-01T03:45:14.009Z,13.80
2023-03-01T03:46:14.166Z,14.50
2023-03-01T03:47:13.993Z,14.10
2023-03-01T03:48:14.078Z,14.40
2023-03-01T03:49:13.965Z,13.80
2023-03-01T03:50:14.174Z,14.30
2023-03-01T03:51:13.960Z,14.40
2023-03-01T03:52:14.039Z,13.90
2023-03-01T03:53:13.906Z,14.20
2023-03-01T03:55:23.466Z,13.90
2023-03-01T03:56:23.253Z,13.80
2023-03-01T03:57:23.293Z,14.50
2023-03-01T03:58:23.227Z,14.50
2023-03-01T03:59:24.350Z,15.10
2023-03-01T04:00:23.202Z,14.80
2023-03-01T04:01:23.373Z,14.40
2023-03-01T04:02:23.348Z,14.50
2023-03-01T04:03:23.292Z,14.80
2023-03-01T04:04:23.154Z,15.40
2023-03-01T04:05:44.419Z,14.50
2023-03-01T04:06:23.126Z,14.80
2023-03-01T04:07:23.217Z,15.20
2023-03-01T04:08:23.118Z,15.80
2023-03-01T04:09:23.207Z,14.30
2023-03-01T04:10:23.063Z,14.60
2023-03-01T04:11:23.247Z,14.50
2023-03-01T04:12:23.044Z,14.70
2023-03-01T04:13:23.236Z,14.60
2023-03-01T04:14:23.018Z,15.60
2023-03-01T04:15:23.104Z,14.60
2023-03-01T04:16:23.110Z,15.10
2023-03-01T04:17:23.042Z,14.60
2023-03-01T04:18:22.980Z,14.50
2023-03-01T04:19:23.155Z,14.70
2023-03-01T04:20:22.947Z,15.10
2023-03-01T04:21:23.115Z,15.80
2023-03-01T04:22:22.911Z,15.90
2023-03-01T04:23:23.065Z,15.80
2023-03-01T04:24:22.880Z,15.00
2023-03-01T04:25:22.936Z,15.60
2023-03-01T04:26:22.872Z,14.80
2023-03-01T04:27:22.920Z,14.90
2023-03-01T04:28:22.849Z,15.70
2023-03-01T04:29:22.958Z,14.80
2023-03-01T04:30:22.821Z,15.40
2023-03-01T04:31:23.021Z,15.90
2023-03-01T04:32:22.792Z,17.00
2023-03-01T04:33:22.829Z,16.30
2023-03-01T04:34:22.763Z,16.90
2023-03-01T04:35:24.038Z,16.40
2023-03-01T04:36:23.006Z,16.40
2023-03-01T04:37:22.847Z,16.00
2023-03-01T04:38:22.744Z,16.10
2023-03-01T04:39:22.826Z,15.80
2023-03-01T04:40:22.677Z,16.20
2023-03-01T04:41:23.797Z,15.60
2023-03-01T04:42:22.654Z,15.90
2023-03-01T04:43:22.756Z,18.30
2023-03-01T04:44:22.636Z,17.10
2023-03-01T04:45:22.737Z,16.10
2023-03-01T04:46:22.673Z,15.90
2023-03-01T04:47:22.668Z,16.60
2023-03-01T04:48:22.572Z,16.40
2023-03-01T04:49:22.766Z,16.60
2023-03-01T04:50:22.568Z,18.70
2023-03-01T04:51:23.680Z,21.60
2023-03-01T04:52:22.519Z,17.00
2023-03-01T04:53:22.592Z,21.20
2023-03-01T04:54:22.476Z,21.60
2023-03-01T04:55:22.565Z,21.80
2023-03-01T04:56:22.477Z,21.70
2023-03-01T04:57:22.549Z,21.20
2023-03-01T04:58:22.473Z,17.80
2023-03-01T04:59:43.563Z,17.10
2023-03-01T05:00:22.416Z,16.70
2023-03-01T05:01:22.591Z,17.00
2023-03-01T05:02:22.425Z,17.30
2023-03-01T05:03:23.484Z,16.40
2023-03-01T05:04:22.384Z,17.80
2023-03-01T05:05:22.603Z,19.00
2023-03-01T05:06:22.376Z,20.40
2023-03-01T05:07:22.477Z,20.50
2023-03-01T05:08:22.305Z,18.10
2023-03-01T05:09:22.457Z,17.50
2023-03-01T05:10:22.294Z,16.80
2023-03-01T05:11:22.404Z,17.30
2023-03-01T05:12:22.252Z,16.60
2023-03-01T05:13:22.383Z,16.80
2023-03-01T05:14:22.282Z,18.50
2023-03-01T05:15:22.380Z,18.90
2023-03-01T05:16:22.201Z,17.20
2023-03-01T05:17:22.312Z,16.70
2023-03-01T05:18:22.226Z,16.50
2023-03-01T05:19:22.290Z,16.90
2023-03-01T05:20:22.152Z,16.60
2023-03-01T05:21:22.301Z,16.50
2023-03-01T05:22:22.132Z,16.50
2023-03-01T05:23:22.212Z,16.70
2023-03-01T05:24:22.100Z,16.50
2023-03-01T05:25:22.369Z,16.20
2023-03-01T05:26:29.185Z,17.40
2023-03-01T05:27:23.070Z,16.70
2023-03-01T05:28:44.150Z,16.80
2023-03-01T05:29:22.039Z,16.90
2023-03-01T05:30:22.180Z,17.30
2023-03-01T05:31:22.102Z,16.80
2023-03-01T05:32:22.159Z,17.10
2023-03-01T05:33:21.969Z,16.60
2023-03-01T05:34:23.080Z,17.20
2023-03-01T05:35:21.977Z,16.90
2023-03-01T05:36:22.096Z,17.20
2023-03-01T05:37:21.949Z,16.00
2023-03-01T05:38:22.024Z,17.00
2023-03-01T05:39:21.912Z,16.50
2023-03-01T05:40:22.079Z,16.10
2023-03-01T05:41:21.879Z,16.70
2023-03-01T05:42:21.988Z,16.70
2023-03-01T05:43:21.878Z,16.50
2023-03-01T05:44:21.928Z,16.60
2023-03-01T05:45:21.916Z,16.40
2023-03-01T05:47:31.246Z,15.00
2023-03-01T05:48:31.055Z,14.80
2023-03-01T05:49:31.082Z,16.70
2023-03-01T05:50:31.311Z,16.40
2023-03-01T05:51:31.116Z,17.00
2023-03-01T05:52:30.995Z,16.90
2023-03-01T05:53:31.146Z,16.40
2023-03-01T05:54:30.983Z,16.80
2023-03-01T05:55:31.153Z,16.70
2023-03-01T05:56:31.259Z,17.20
2023-03-01T05:57:31.017Z,16.60
2023-03-01T05:58:30.951Z,17.00
2023-03-01T05:59:30.973Z,17.50
2023-03-01T06:00:30.912Z,16.50
2023-03-01T06:01:33.086Z,17.00
2023-03-01T06:02:30.857Z,17.10
2023-03-01T06:03:31.026Z,17.80
2023-03-01T06:04:30.872Z,17.60
2023-03-01T06:05:30.980Z,17.20
2023-03-01T06:06:31.317Z,17.60
2023-03-01T06:07:32.898Z,17.20
2023-03-01T06:08:30.784Z,19.10
2023-03-01T06:09:30.843Z,24.00
2023-03-01T06:10:30.767Z,24.70
2023-03-01T06:11:30.885Z,21.50
2023-03-01T06:12:30.747Z,26.40
2023-03-01T06:13:30.915Z,26.60
2023-03-01T06:14:30.709Z,25.10
2023-03-01T06:15:30.794Z,25.30
2023-03-01T06:16:31.059Z,23.70
2023-03-01T06:17:30.784Z,23.50
2023-03-01T06:18:30.668Z,16.60
2023-03-01T06:19:30.721Z,19.40
2023-03-01T06:20:30.634Z,20.20
2023-03-01T06:21:30.784Z,19.00
2023-03-01T06:22:30.615Z,20.80
2023-03-01T06:23:30.788Z,21.70
2023-03-01T06:24:30.595Z,19.10
2023-03-01T06:25:30.641Z,20.40
2023-03-01T06:26:30.804Z,19.80
2023-03-01T06:27:30.644Z,20.10
2023-03-01T06:28:30.531Z,20.60
2023-03-01T06:29:51.613Z,20.00
2023-03-01T06:30:30.493Z,16.80
2023-03-01T06:31:30.646Z,21.00
2023-03-01T06:32:30.487Z,18.80
2023-03-01T06:33:30.656Z,17.90
2023-03-01T06:34:30.434Z,18.40
2023-03-01T06:35:31.656Z,17.10
2023-03-01T06:36:30.693Z,18.00
2023-03-01T06:37:30.532Z,16.90
2023-03-01T06:38:30.401Z,18.70
2023-03-01T06:39:30.462Z,19.00
2023-03-01T06:40:30.393Z,16.70
2023-03-01T06:41:30.554Z,17.20
2023-03-01T06:42:30.336Z,18.00
2023-03-01T06:43:30.439Z,17.00
2023-03-01T06:44:30.320Z,17.10
2023-03-01T06:45:30.369Z,18.10
2023-03-01T06:46:30.631Z,17.30
2023-03-01T06:47:30.452Z,16.80
2023-03-01T06:48:30.262Z,17.50
2023-03-01T06:49:30.351Z,16.80
2023-03-01T06:50:30.261Z,17.80
2023-03-01T06:51:30.392Z,17.10
2023-03-01T06:52:30.209Z,17.50
2023-03-01T06:53:30.267Z,17.60
2023-03-01T06:54:30.187Z,18.00
2023-03-01T06:55:30.256Z,17.10
2023-03-01T06:56:30.641Z,17.60
2023-03-01T06:57:30.281Z,17.30
2023-03-01T06:58:30.145Z,17.20
2023-03-01T06:59:30.258Z,17.50
2023-03-01T07:00:30.238Z,17.20
2023-03-01T07:01:51.263Z,17.90
2023-03-01T07:02:30.107Z,17.60
2023-03-01T07:03:36.374Z,16.90
2023-03-01T07:04:30.071Z,17.10
2023-03-01T07:05:30.223Z,17.40
2023-03-01T07:06:30.298Z,16.50
2023-03-01T07:07:30.062Z,17.10
2023-03-01T07:08:29.993Z,17.40
2023-03-01T07:09:30.195Z,17.50
2023-03-01T07:10:29.988Z,17.70
2023-03-01T07:11:30.116Z,17.50
2023-03-01T07:12:29.946Z,18.00
2023-03-01T07:13:30.084Z,18.90
2023-03-01T07:14:29.941Z,16.90
2023-03-01T07:15:29.995Z,18.40
2023-03-01T07:16:30.218Z,17.50
2023-03-01T07:17:31.004Z,16.80
2023-03-01T07:18:29.873Z,17.10
2023-03-01T07:19:30.983Z,17.80
2023-03-01T07:20:29.887Z,16.70
2023-03-01T07:21:29.908Z,16.80
2023-03-01T07:22:29.818Z,17.30
2023-03-01T07:23:29.900Z,17.20
2023-03-01T07:24:29.784Z,17.70
2023-03-01T07:25:29.873Z,17.50
2023-03-01T07:26:30.029Z,17.90
2023-03-01T07:27:29.901Z,16.90
2023-03-01T07:28:29.743Z,17.70
2023-03-01T07:29:29.794Z,17.00
2023-03-01T07:30:29.729Z,17.30
2023-03-01T07:31:29.786Z,16.90
2023-03-01T07:32:29.806Z,17.30
2023-03-01T07:33:29.813Z,17.40
2023-03-01T07:34:29.668Z,17.10
2023-03-01T07:35:30.870Z,16.80
2023-03-01T07:36:29.858Z,17.00
2023-03-01T07:37:29.790Z,16.90
2023-03-01T07:38:29.609Z,17.20
2023-03-01T07:39:29.722Z,16.40
2023-03-01T07:40:29.579Z,16.30
2023-03-01T07:41:29.708Z,17.10
2023-03-01T07:42:29.549Z,17.00
2023-03-01T07:43:29.689Z,17.30
2023-03-01T07:44:29.518Z,16.90
2023-03-01T07:45:29.666Z,17.20
2023-03-01T07:46:29.854Z,17.30
2023-03-01T07:47:29.721Z,15.90
2023-03-01T07:48:29.598Z,16.50
2023-03-01T07:49:29.679Z,15.60
2023-03-01T07:50:29.453Z,16.20
2023-03-01T07:51:29.543Z,16.30
2023-03-01T07:52:29.421Z,16.00
2023-03-01T07:53:29.525Z,16.30
2023-03-01T07:54:29.421Z,15.90
2023-03-01T07:55:29.527Z,16.00
2023-03-01T07:56:29.662Z,15.70
2023-03-01T07:57:29.464Z,15.10
2023-03-01T07:58:29.344Z,15.80
2023-03-01T07:59:29.417Z,16.10
2023-03-01T08:00:29.317Z,15.90
2023-03-01T08:01:29.444Z,16.50
2023-03-01T08:02:29.286Z,16.10
2023-03-01T08:03:29.456Z,15.00
2023-03-01T08:04:29.348Z,15.30
2023-03-01T08:05:31.475Z,15.20
2023-03-01T08:06:29.601Z,15.10
2023-03-01T08:07:29.312Z,15.80
2023-03-01T08:08:29.221Z,15.30
2023-03-01T08:09:29.242Z,15.30
2023-03-01T08:10:29.174Z,15.80
2023-03-01T08:11:31.370Z,15.60
2023-03-01T08:12:29.152Z,15.50
2023-03-01T08:13:29.314Z,15.50
2023-03-01T08:14:29.120Z,14.60
2023-03-01T08:15:29.247Z,16.20
2023-03-01T08:16:29.577Z,15.00
2023-03-01T08:17:29.282Z,15.60
2023-03-01T08:18:29.081Z,15.80
2023-03-01T08:19:29.140Z,15.80
2023-03-01T08:20:29.051Z,15.50
2023-03-01T08:21:29.231Z,15.40
2023-03-01T08:22:29.012Z,15.80
2023-03-01T08:23:29.144Z,15.90
2023-03-01T08:24:28.986Z,16.10
2023-03-01T08:25:29.021Z,15.50
2023-03-01T08:26:29.069Z,15.50
2023-03-01T08:27:29.067Z,15.70
2023-03-01T08:28:28.944Z,16.20
2023-03-01T08:29:29.055Z,15.80
2023-03-01T08:30:28.911Z,16.70
2023-03-01T08:31:30.110Z,15.80
2023-03-01T08:32:28.918Z,15.90
2023-03-01T08:33:29.123Z,15.60
2023-03-01T08:34:28.856Z,16.20
2023-03-01T08:35:29.000Z,15.30
2023-03-01T08:36:29.323Z,15.60
2023-03-01T08:37:28.940Z,15.50
2023-03-01T08:38:28.799Z,15.60
2023-03-01T08:39:29.927Z,16.30
2023-03-01T08:40:28.766Z,15.70
2023-03-01T08:41:28.972Z,17.00
2023-03-01T08:42:28.747Z,15.70
2023-03-01T08:43:28.841Z,15.80
2023-03-01T08:44:28.716Z,15.50
2023-03-01T08:45:28.824Z,15.40
2023-03-01T08:46:28.737Z,16.50
2023-03-01T08:47:28.867Z,16.10
2023-03-01T08:48:28.678Z,16.50
2023-03-01T08:49:28.745Z,15.60
2023-03-01T08:50:28.656Z,16.50
2023-03-01T08:51:28.776Z,16.20
2023-03-01T08:52:28.625Z,15.70
2023-03-01T08:53:28.773Z,15.50
2023-03-01T08:54:28.604Z,15.80
2023-03-01T08:55:28.664Z,15.40
2023-03-01T08:56:28.907Z,15.70
2023-03-01T08:57:29.715Z,16.20
2023-03-01T08:58:28.539Z,16.20
2023-03-01T08:59:28.678Z,15.60
2023-03-01T09:00:28.507Z,15.10
2023-03-01T09:01:28.666Z,15.80
2023-03-01T09:02:28.509Z,14.90
2023-03-01T09:03:28.612Z,15.60
2023-03-01T09:04:28.464Z,16.00
2023-03-01T09:05:29.117Z,15.90
2023-03-01T09:06:28.791Z,15.90
2023-03-01T09:07:29.853Z,15.80
2023-03-01T09:08:28.566Z,15.80
2023-03-01T09:09:28.509Z,15.60
2023-03-01T09:10:28.394Z,15.10
2023-03-01T09:11:28.536Z,15.30
2023-03-01T09:12:28.440Z,15.90
2023-03-01T09:13:28.484Z,15.20
2023-03-01T09:14:28.381Z,15.90
2023-03-01T09:15:28.406Z,15.30
2023-03-01T09:16:28.524Z,14.80
2023-03-01T09:17:28.581Z,15.10
2023-03-01T09:18:28.296Z,15.90
2023-03-01T09:19:29.534Z,15.10
2023-03-01T09:20:28.271Z,15.60
2023-03-01T09:21:40.058Z,15.50
2023-03-01T09:22:29.270Z,16.20
2023-03-01T09:23:28.389Z,16.00
2023-03-01T09:24:28.257Z,15.80
2023-03-01T09:25:49.746Z,16.40
2023-03-01T09:26:28.174Z,15.60
2023-03-01T09:27:28.336Z,16.30
2023-03-01T09:28:30.268Z,16.80
2023-03-01T09:29:28.152Z,16.10
2023-03-01T09:30:28.124Z,15.30
2023-03-01T09:31:28.217Z,15.50
2023-03-01T09:32:28.148Z,14.90
2023-03-01T09:33:28.225Z,15.40
2023-03-01T09:34:28.132Z,15.60
2023-03-01T09:35:28.230Z,15.60
2023-03-01T09:36:28.070Z,15.30
2023-03-01T09:37:28.217Z,14.00
2023-03-01T09:38:28.208Z,13.90
2023-03-01T09:39:28.283Z,13.70
2023-03-01T09:40:28.010Z,13.00
2023-03-01T09:41:29.093Z,14.20
2023-03-01T09:42:27.952Z,14.00
2023-03-01T09:43:28.137Z,15.20
2023-03-01T09:44:27.953Z,13.70
2023-03-01T09:45:28.052Z,14.70
2023-03-01T09:46:28.063Z,13.80
2023-03-01T09:47:28.083Z,14.60
2023-03-01T09:48:27.892Z,14.70
2023-03-01T09:49:27.913Z,14.60
2023-03-01T09:50:27.861Z,14.60
2023-03-01T09:51:28.032Z,14.20
2023-03-01T09:52:27.852Z,14.60
2023-03-01T09:53:28.110Z,15.20
2023-03-01T09:54:27.804Z,14.30
2023-03-01T09:55:27.923Z,15.40
2023-03-01T09:56:27.780Z,14.30
2023-03-01T09:57:27.854Z,14.20
2023-03-01T09:58:27.825Z,14.60
2023-03-01T09:59:27.795Z,14.40
2023-03-01T10:00:27.723Z,13.60
2023-03-01T10:01:29.195Z,14.60
2023-03-01T10:02:27.703Z,14.60
2023-03-01T10:03:27.896Z,14.40
2023-03-01T10:04:27.757Z,14.70
2023-03-01T10:05:28.884Z,14.90
2023-03-01T10:06:34.912Z,14.10
2023-03-01T10:07:28.718Z,15.00
2023-03-01T10:08:27.853Z,14.00
2023-03-01T10:09:27.622Z,14.80
2023-03-01T10:10:27.794Z,14.00
2023-03-01T10:11:27.645Z,14.80
2023-03-01T10:12:27.680Z,14.80
2023-03-01T10:13:27.623Z,14.30
2023-03-01T10:14:27.775Z,14.70
2023-03-01T10:15:27.536Z,14.20
2023-03-01T10:16:27.702Z,13.90
2023-03-01T10:17:27.522Z,13.70
2023-03-01T10:18:27.687Z,14.90
2023-03-01T10:19:27.490Z,14.40
2023-03-01T10:20:27.520Z,13.90
2023-03-01T10:21:27.616Z,13.90
2023-03-01T10:22:27.602Z,14.40
2023-03-01T10:23:27.465Z,13.90
2023-03-01T10:24:27.481Z,14.10
2023-03-01T10:25:27.392Z,13.30
2023-03-01T10:26:27.510Z,13.30
2023-03-01T10:27:27.369Z,12.80
2023-03-01T10:28:27.519Z,13.40
2023-03-01T10:29:27.341Z,13.30
2023-03-01T10:30:27.382Z,13.30
2023-03-01T10:31:27.451Z,13.40
2023-03-01T10:32:27.439Z,13.30
2023-03-01T10:33:27.408Z,12.70
2023-03-01T10:34:27.661Z,12.60
2023-03-01T10:35:27.267Z,12.80
2023-03-01T10:36:27.460Z,13.40
2023-03-01T10:37:27.240Z,13.30
2023-03-01T10:38:27.441Z,11.90
2023-03-01T10:39:27.209Z,11.60
2023-03-01T10:40:27.320Z,11.90
2023-03-01T10:41:27.192Z,12.00
2023-03-01T10:42:27.305Z,11.80
2023-03-01T10:43:27.167Z,11.90
2023-03-01T10:44:27.251Z,12.30
2023-03-01T10:45:27.139Z,12.80
2023-03-01T10:46:27.447Z,12.70
2023-03-01T10:47:27.109Z,11.70
2023-03-01T10:48:27.367Z,12.30
2023-03-01T10:49:27.243Z,12.10
2023-03-01T10:50:27.154Z,11.60
2023-03-01T10:51:27.278Z,11.80
2023-03-01T10:52:27.138Z,10.80
2023-03-01T10:53:27.039Z,11.20
2023-03-01T10:54:27.109Z,11.30
2023-03-01T10:55:27.031Z,10.60
2023-03-01T10:56:27.153Z,11.90
2023-03-01T10:57:27.012Z,10.70
2023-03-01T10:58:27.163Z,11.10
2023-03-01T10:59:26.948Z,11.00
2023-03-01T11:00:27.028Z,12.00
2023-03-01T11:01:27.087Z,11.40
2023-03-01T11:02:27.365Z,11.90
2023-03-01T11:03:26.924Z,11.10
2023-03-01T11:04:29.112Z,11.20
2023-03-01T11:05:26.913Z,11.20
2023-03-01T11:06:27.131Z,11.00
2023-03-01T11:07:26.849Z,10.90
2023-03-01T11:08:26.977Z,10.10
2023-03-01T11:09:26.810Z,10.50
2023-03-01T11:10:26.962Z,11.00
2023-03-01T11:11:26.785Z,13.50
2023-03-01T11:12:26.955Z,10.60
2023-03-01T11:13:26.770Z,10.70
2023-03-01T11:14:28.033Z,10.40
2023-03-01T11:15:26.770Z,9.90
2023-03-01T11:16:26.941Z,10.60
2023-03-01T11:17:26.744Z,11.60
2023-03-01T11:18:44.230Z,10.50
2023-03-01T11:19:27.688Z,10.40
2023-03-01T11:20:28.389Z,10.70
2023-03-01T11:21:26.660Z,10.50
2023-03-01T11:22:26.793Z,9.80
2023-03-01T11:23:26.670Z,10.70
2023-03-01T11:24:26.738Z,10.00
2023-03-01T11:25:26.605Z,10.30
2023-03-01T11:26:26.887Z,10.50
2023-03-01T11:27:26.584Z,10.60
2023-03-01T11:28:28.220Z,11.50
2023-03-01T11:29:26.551Z,10.60
2023-03-01T11:30:26.668Z,10.70
2023-03-01T11:31:26.660Z,10.30
2023-03-01T11:32:26.808Z,10.30
2023-03-01T11:33:26.494Z,10.40
2023-03-01T11:34:26.568Z,10.50
2023-03-01T11:35:26.455Z,10.50
2023-03-01T11:36:26.600Z,10.30
2023-03-01T11:37:26.449Z,10.50
2023-03-01T11:38:28.723Z,10.10
2023-03-01T11:39:26.431Z,10.00
2023-03-01T11:40:28.532Z,9.80
2023-03-01T11:41:26.390Z,10.30
2023-03-01T11:42:26.555Z,10.50
2023-03-01T11:43:26.345Z,10.40
2023-03-01T11:44:26.393Z,9.80
2023-03-01T11:45:26.336Z,10.10
2023-03-01T11:46:26.594Z,10.00
2023-03-01T11:47:26.469Z,9.60
2023-03-01T11:48:26.908Z,9.30
2023-03-01T11:49:26.276Z,9.60
2023-03-01T11:50:26.548Z,9.50
2023-03-01T11:51:26.262Z,9.60
2023-03-01T11:52:29.663Z,10.00
2023-03-01T11:53:26.235Z,10.60
2023-03-01T11:54:26.257Z,10.70
2023-03-01T11:55:26.214Z,10.30
2023-03-01T11:56:27.335Z,10.20
2023-03-01T11:57:34.140Z,10.30
2023-03-01T11:58:27.165Z,10.30
2023-03-01T11:59:26.244Z,10.70
2023-03-01T12:00:26.149Z,11.50
2023-03-01T12:01:26.242Z,10.80
2023-03-01T12:02:26.139Z,10.50
2023-03-01T12:03:26.226Z,11.00
2023-03-01T12:04:26.113Z,10.50
2023-03-01T12:05:26.365Z,10.20
2023-03-01T12:06:26.075Z,10.70
2023-03-01T12:07:27.092Z,10.20
2023-03-01T12:08:26.023Z,10.70
2023-03-01T12:09:26.142Z,11.30
2023-03-01T12:10:25.983Z,10.30
2023-03-01T12:11:26.127Z,10.80
2023-03-01T12:12:26.130Z,10.70
2023-03-01T12:13:26.061Z,10.90
2023-03-01T12:14:25.940Z,10.70
2023-03-01T12:15:26.153Z,11.30
2023-03-01T12:16:38.328Z,10.40
2023-03-01T12:17:26.968Z,11.00
2023-03-01T12:18:26.003Z,11.20
2023-03-01T12:19:25.923Z,10.80
2023-03-01T12:20:26.032Z,10.00
2023-03-01T12:21:25.852Z,10.90
2023-03-01T12:22:25.964Z,11.10
2023-03-01T12:23:25.817Z,11.10
2023-03-01T12:24:25.883Z,10.60
2023-03-01T12:25:25.804Z,11.50
2023-03-01T12:26:25.924Z,12.00
2023-03-01T12:27:25.773Z,10.80
2023-03-01T12:28:25.864Z,10.60
2023-03-01T12:29:25.733Z,11.00
2023-03-01T12:30:25.793Z,10.40
2023-03-01T12:31:25.743Z,11.70
2023-03-01T12:32:25.873Z,10.70
2023-03-01T12:33:25.745Z,10.70
2023-03-01T12:34:25.826Z,11.40
2023-03-01T12:35:25.690Z,11.40
2023-03-01T12:36:25.802Z,11.10
2023-03-01T12:37:25.767Z,11.00
2023-03-01T12:38:25.743Z,10.70
2023-03-01T12:39:25.634Z,11.00
2023-03-01T12:40:27.770Z,11.80
2023-03-01T12:41:25.573Z,11.20
2023-03-01T12:42:25.609Z,10.80
2023-03-01T12:43:25.552Z,11.40
2023-03-01T12:44:25.841Z,11.50
2023-03-01T12:45:25.563Z,10.50
2023-03-01T12:46:25.702Z,11.80
2023-03-01T12:47:25.507Z,10.60
2023-03-01T12:48:25.512Z,11.30
2023-03-01T12:49:25.483Z,10.90
2023-03-01T12:50:25.560Z,11.10
2023-03-01T12:51:25.479Z,11.60
2023-03-01T12:52:26.516Z,11.60
2023-03-01T12:53:25.414Z,11.20
2023-03-01T12:54:25.524Z,12.30
2023-03-01T12:55:25.741Z,11.90
2023-03-01T12:56:25.696Z,11.10
2023-03-01T12:57:25.395Z,10.90
2023-03-01T12:58:25.602Z,11.50
2023-03-01T12:59:25.333Z,11.00
2023-03-01T13:00:27.574Z,11.20
2023-03-01T13:01:25.429Z,11.50